Time;durP1;ratioP1;P1;durP2;ratioP2;P2;SDS_P1;SDS_P2;PMS_P1;PMS_P2;Temp;Humidity;BMP_temperature;BMP_pressure;BME280_temperature;BME280_humidity;BME280_pressure;Samples;Min_cycle;Max_cycle;Signal;HPM_P1;HPM_P2
2022/12/15 00:38:41;;;;;;;6.33;3.43;;;14.10;99.90;;;;;;5005942;28;20193;-76
2022/12/15 00:41:08;;;;;;;12.00;3.43;;;14.20;99.90;;;;;;5006522;28;20208;-76
2022/12/15 00:43:36;;;;;;;8.60;3.40;;;14.20;99.90;;;;;;5008449;28;20250;-76
2022/12/15 00:48:49;;;;;;;9.03;3.50;;;14.20;99.90;;;;;;5004457;28;20182;-76
2022/12/15 00:51:17;;;;;;;9.93;3.30;;;14.20;99.90;;;;;;5002039;28;20189;-76
2022/12/15 01:21:20;;;;;;;7.50;3.13;;;14.00;99.90;;;;;;5008748;28;20188;-76
2022/12/15 01:23:46;;;;;;;9.07;3.00;;;14.00;99.90;;;;;;5017352;28;20189;-76
2022/12/15 01:26:12;;;;;;;7.30;3.10;;;14.00;99.90;;;;;;5008780;28;20251;-76
2022/12/15 01:28:39;;;;;;;7.37;3.23;;;14.00;99.90;;;;;;5009815;28;20193;-76
2022/12/15 01:31:11;;;;;;;6.63;3.17;;;14.00;99.90;;;;;;5003643;28;20212;-76
2022/12/15 01:33:41;;;;;;;9.83;3.10;;;14.00;99.90;;;;;;5006594;28;20658;-76
2022/12/15 01:36:09;;;;;;;5.43;3.20;;;14.10;99.90;;;;;;4994355;28;20211;-76
2022/12/15 01:38:37;;;;;;;8.23;3.30;;;14.10;99.90;;;;;;4992532;28;20196;-76
2022/12/15 01:41:15;;;;;;;7.03;3.27;;;14.10;99.90;;;;;;5010315;28;20281;-76
2022/12/15 01:43:42;;;;;;;14.53;3.70;;;14.10;99.90;;;;;;5002821;28;20204;-76
2022/12/15 01:46:14;;;;;;;8.33;3.20;;;14.20;99.90;;;;;;5004057;28;20694;-76
2022/12/15 01:48:56;;;;;;;11.20;3.50;;;14.20;99.90;;;;;;5009783;28;20262;-75
2022/12/15 01:51:40;;;;;;;11.67;3.67;;;14.20;99.90;;;;;;5009027;28;20598;-76
2022/12/15 01:54:18;;;;;;;9.97;3.53;;;14.20;99.90;;;;;;4993878;28;20176;-76
2022/12/15 01:56:51;;;;;;;9.07;3.10;;;14.30;99.90;;;;;;5015123;28;20192;-76
2022/12/15 01:59:34;;;;;;;9.20;3.43;;;14.30;99.90;;;;;;5019479;28;20216;-76
2022/12/15 02:02:01;;;;;;;8.37;3.30;;;14.30;99.90;;;;;;5003695;28;20191;-76
2022/12/15 02:04:29;;;;;;;9.87;3.07;;;14.30;99.90;;;;;;5008682;28;20201;-76
2022/12/15 02:06:56;;;;;;;9.27;2.97;;;14.30;99.90;;;;;;5022698;28;20213;-76
2022/12/15 02:09:27;;;;;;;12.40;3.10;;;14.30;99.90;;;;;;5007384;28;20638;-76
2022/12/15 02:12:25;;;;;;;6.93;3.20;;;14.20;99.90;;;;;;5024156;28;20523;-76
2022/12/15 02:15:38;;;;;;;6.30;2.90;;;14.20;99.90;;;;;;5005679;28;20204;-76
2022/12/15 02:18:32;;;;;;;5.57;2.60;;;14.20;99.90;;;;;;5004892;28;20189;-76
2022/12/15 02:21:20;;;;;;;9.13;2.83;;;14.20;99.90;;;;;;5026339;28;20200;-76
2022/12/15 02:24:24;;;;;;;10.00;3.17;;;14.20;99.90;;;;;;5009731;28;20212;-76
2022/12/15 02:27:11;;;;;;;7.97;3.23;;;14.30;99.90;;;;;;5007389;28;20216;-76
2022/12/15 02:30:03;;;;;;;8.83;2.87;;;14.30;99.90;;;;;;5007626;28;20193;-76
2022/12/15 02:32:59;;;;;;;9.47;3.03;;;14.30;99.90;;;;;;5001741;28;20185;-76
2022/12/15 02:35:47;;;;;;;8.23;2.83;;;14.30;99.90;;;;;;5004831;28;20243;-76
2022/12/15 02:38:14;;;;;;;7.50;2.80;;;14.30;99.90;;;;;;4997809;28;20185;-76
2022/12/15 02:40:40;;;;;;;7.80;2.80;;;14.30;99.90;;;;;;5007318;28;20217;-76
2022/12/15 02:43:09;;;;;;;6.13;2.80;;;14.30;99.90;;;;;;5001173;28;20219;-76
2022/12/15 02:46:00;;;;;;;6.93;3.20;;;14.30;99.90;;;;;;5016235;28;20255;-76
2022/12/15 02:49:08;;;;;;;9.50;2.80;;;14.30;99.90;;;;;;5005159;28;20188;-76
2022/12/15 02:51:47;;;;;;;6.57;2.73;;;14.30;99.90;;;;;;4997907;28;20570;-76
2022/12/15 02:54:52;;;;;;;6.43;3.20;;;14.20;99.90;;;;;;5023217;28;20196;-76
2022/12/15 02:57:24;;;;;;;8.23;3.13;;;14.20;99.90;;;;;;5001469;28;20184;-76
2022/12/15 03:00:01;;;;;;;9.43;3.10;;;14.20;99.90;;;;;;5002392;28;20220;-76
2022/12/15 03:02:33;;;;;;;7.47;3.20;;;14.20;99.90;;;;;;5009318;28;20185;-76
2022/12/15 03:05:00;;;;;;;8.50;2.93;;;14.20;99.90;;;;;;5000492;28;20212;-76
2022/12/15 03:07:27;;;;;;;8.07;2.80;;;14.20;99.90;;;;;;5009240;28;20209;-76
2022/12/15 03:10:00;;;;;;;6.00;3.03;;;14.20;99.90;;;;;;5009173;28;20269;-76
2022/12/15 03:12:26;;;;;;;11.07;2.80;;;14.20;99.90;;;;;;5007740;28;20235;-76
2022/12/15 03:14:54;;;;;;;5.90;2.67;;;14.20;99.90;;;;;;5006564;28;20638;-76
2022/12/15 03:17:20;;;;;;;8.63;2.83;;;14.20;99.90;;;;;;5008566;28;20664;-76
2022/12/15 03:19:46;;;;;;;5.67;2.60;;;14.20;99.90;;;;;;5006379;28;20187;-76
2022/12/15 03:22:14;;;;;;;8.30;2.77;;;14.20;99.90;;;;;;5006651;28;20224;-76
2022/12/15 03:24:41;;;;;;;6.13;2.60;;;14.20;99.90;;;;;;5006746;28;20196;-76
2022/12/15 03:27:07;;;;;;;6.87;2.83;;;14.20;99.90;;;;;;5008311;28;20295;-76
2022/12/15 03:29:33;;;;;;;6.57;2.80;;;14.20;99.90;;;;;;4998866;28;20200;-76
2022/12/15 03:32:00;;;;;;;7.63;2.50;;;14.10;99.90;;;;;;5009527;28;20187;-76
2022/12/15 03:34:26;;;;;;;13.80;2.80;;;14.10;99.90;;;;;;5006217;28;20189;-76
2022/12/15 03:36:53;;;;;;;7.60;3.17;;;14.10;99.90;;;;;;5003119;28;20273;-76
2022/12/15 03:39:19;;;;;;;9.50;2.70;;;14.10;99.90;;;;;;5007550;28;20666;-76
2022/12/15 03:41:47;;;;;;;8.70;2.60;;;14.10;99.90;;;;;;5005687;28;20637;-76
2022/12/15 03:44:13;;;;;;;6.53;2.53;;;14.10;99.90;;;;;;5008481;28;20235;-76
2022/12/15 03:46:40;;;;;;;8.17;2.80;;;14.10;99.90;;;;;;5007555;28;20876;-76
2022/12/15 03:49:06;;;;;;;8.53;2.83;;;14.20;99.90;;;;;;5004586;28;20197;-76
2022/12/15 03:51:32;;;;;;;6.90;2.80;;;14.20;99.90;;;;;;5007725;28;20231;-76
2022/12/15 03:53:59;;;;;;;6.30;2.67;;;14.20;99.90;;;;;;5008342;28;20185;-76
2022/12/15 03:56:25;;;;;;;9.40;2.83;;;14.20;99.90;;;;;;5002927;28;20618;-76
2022/12/15 03:58:52;;;;;;;7.97;2.30;;;14.20;99.90;;;;;;5007739;28;20188;-76
2022/12/15 04:01:27;;;;;;;6.63;2.57;;;14.20;99.90;;;;;;5006504;28;20193;-76
2022/12/15 04:03:55;;;;;;;6.33;2.27;;;14.20;99.90;;;;;;5008705;28;20204;-76
2022/12/15 04:06:23;;;;;;;7.23;2.33;;;14.20;99.90;;;;;;5005887;28;20209;-76
2022/12/15 04:08:49;;;;;;;4.57;2.40;;;14.20;99.90;;;;;;5023030;28;20617;-76
2022/12/15 04:11:16;;;;;;;4.37;2.30;;;14.20;99.90;;;;;;5000552;28;20186;-76
2022/12/15 04:13:43;;;;;;;6.17;2.80;;;14.20;99.90;;;;;;5006898;28;20189;-76
2022/12/15 04:16:10;;;;;;;7.67;2.23;;;14.10;99.90;;;;;;5006954;28;20215;-76
2022/12/15 04:18:37;;;;;;;6.27;2.67;;;14.20;99.90;;;;;;5004637;28;20196;-76
2022/12/15 04:21:04;;;;;;;9.03;2.50;;;14.20;99.90;;;;;;4984927;28;20697;-76
2022/12/15 04:23:30;;;;;;;6.87;2.40;;;14.20;99.90;;;;;;5007683;28;20184;-76
2022/12/15 05:32:24;;;;;;;4.70;1.83;;;14.40;99.90;;;;;;5006374;28;20193;-76
2022/12/15 05:34:51;;;;;;;3.10;1.73;;;14.40;99.90;;;;;;5008407;28;20200;-76
2022/12/15 05:37:17;;;;;;;4.87;1.97;;;14.40;99.90;;;;;;5011852;28;20272;-76
2022/12/15 05:39:43;;;;;;;7.70;2.00;;;14.40;99.90;;;;;;5003351;28;20799;-76
2022/12/15 05:42:10;;;;;;;7.20;1.97;;;14.40;99.90;;;;;;5012339;28;20227;-76
2022/12/15 05:44:36;;;;;;;5.63;2.07;;;14.40;99.90;;;;;;5001690;28;20539;-76
2022/12/15 05:47:03;;;;;;;5.70;2.30;;;14.40;99.90;;;;;;4998763;28;20701;-76
2022/12/15 05:49:29;;;;;;;5.07;1.93;;;14.40;99.90;;;;;;5004820;28;20609;-76
2022/12/15 05:51:56;;;;;;;7.10;1.87;;;14.40;99.90;;;;;;5005265;28;20227;-76
2022/12/15 05:54:22;;;;;;;3.97;1.77;;;14.40;99.90;;;;;;5011681;28;20176;-76
2022/12/15 05:56:49;;;;;;;4.13;1.80;;;14.40;99.90;;;;;;5008640;28;20196;-76
2022/12/15 05:59:17;;;;;;;6.47;2.30;;;14.50;99.90;;;;;;5006613;28;20193;-76
2022/12/15 06:01:44;;;;;;;5.67;1.90;;;14.50;99.90;;;;;;5003123;28;20658;-76
2022/12/15 06:04:11;;;;;;;9.03;2.27;;;14.50;99.90;;;;;;5011140;28;20243;-76
2022/12/15 06:06:38;;;;;;;6.20;2.00;;;14.60;99.90;;;;;;5010008;28;20585;-76
2022/12/15 06:09:05;;;;;;;3.77;1.90;;;14.60;99.90;;;;;;5002118;28;20276;-76
2022/12/15 06:11:32;;;;;;;6.50;1.90;;;14.70;99.90;;;;;;4995311;28;20193;-76
2022/12/15 06:13:59;;;;;;;3.93;1.80;;;14.70;99.90;;;;;;5002588;28;20550;-76
2022/12/15 06:16:29;;;;;;;4.63;1.80;;;14.70;99.90;;;;;;5000761;28;20244;-76
2022/12/15 06:18:59;;;;;;;5.33;1.90;;;14.80;99.90;;;;;;5002317;28;20197;-76
2022/12/15 06:21:36;;;;;;;5.17;1.90;;;14.80;99.90;;;;;;5006740;28;20327;-75
2022/12/15 06:24:05;;;;;;;4.00;1.90;;;14.80;99.90;;;;;;5002981;28;20243;-76
2022/12/15 06:26:35;;;;;;;5.73;2.27;;;14.80;99.90;;;;;;4997273;28;20223;-76
2022/12/15 06:29:05;;;;;;;5.27;1.83;;;14.90;99.90;;;;;;5005388;28;20189;-76
2022/12/15 06:31:32;;;;;;;6.60;1.93;;;15.00;99.90;;;;;;4998880;28;20193;-76
2022/12/15 06:34:02;;;;;;;8.47;2.00;;;15.00;99.90;;;;;;5007632;28;20201;-76
2022/12/15 06:36:29;;;;;;;4.10;2.10;;;15.10;99.90;;;;;;5007176;28;20300;-76
2022/12/15 06:39:00;;;;;;;6.33;1.93;;;15.10;99.90;;;;;;5003340;28;20216;-76
2022/12/15 06:41:30;;;;;;;6.77;1.87;;;15.10;99.90;;;;;;4996183;28;21054;-76
2022/12/15 06:43:58;;;;;;;3.60;1.50;;;15.20;99.90;;;;;;4996148;28;20264;-75
2022/12/15 06:46:26;;;;;;;4.70;1.93;;;15.20;99.90;;;;;;4995473;28;20698;-76
2022/12/15 06:48:54;;;;;;;7.70;2.00;;;15.20;99.90;;;;;;5005137;28;20272;-76
2022/12/15 06:51:23;;;;;;;6.10;1.77;;;15.30;99.90;;;;;;4984016;28;20203;-76
2022/12/15 06:53:54;;;;;;;4.57;1.60;;;15.30;99.90;;;;;;4999421;28;20192;-76
2022/12/15 06:56:43;;;;;;;7.43;1.47;;;15.30;99.90;;;;;;5007478;28;20196;-76
2022/12/15 06:59:11;;;;;;;4.90;1.50;;;15.30;99.90;;;;;;5001740;28;21059;-76
2022/12/15 07:01:38;;;;;;;6.47;1.70;;;15.30;99.90;;;;;;5006362;28;20204;-75
2022/12/15 07:04:05;;;;;;;5.00;1.80;;;15.30;99.90;;;;;;4983014;28;20612;-76
2022/12/15 07:06:36;;;;;;;4.30;1.70;;;15.30;99.90;;;;;;4999616;28;20245;-76
2022/12/15 07:09:06;;;;;;;8.93;1.90;;;15.30;99.90;;;;;;4999338;28;20201;-76
2022/12/15 07:11:33;;;;;;;4.57;1.57;;;15.30;99.90;;;;;;5004765;28;21032;-75
2022/12/15 07:13:59;;;;;;;5.50;1.90;;;15.30;99.90;;;;;;4983289;28;20209;-76
2022/12/15 07:16:25;;;;;;;5.27;1.83;;;15.30;99.90;;;;;;5002678;28;20279;-76
2022/12/15 07:18:51;;;;;;;6.47;2.17;;;15.30;99.90;;;;;;5001397;28;20650;-76
2022/12/15 07:21:19;;;;;;;6.40;1.90;;;15.30;99.90;;;;;;5005477;28;20228;-76
2022/12/15 07:23:45;;;;;;;4.20;1.67;;;15.30;99.90;;;;;;4995083;28;21029;-75
2022/12/15 07:26:11;;;;;;;9.20;2.27;;;15.40;99.90;;;;;;5004313;28;20212;-76
2022/12/15 07:28:38;;;;;;;4.47;1.93;;;15.40;99.90;;;;;;5000290;28;20200;-76
2022/12/15 07:31:10;;;;;;;8.83;2.10;;;15.40;99.90;;;;;;5007736;28;20266;-76
2022/12/15 07:33:37;;;;;;;5.30;1.83;;;15.50;99.90;;;;;;5007272;28;20204;-76
2022/12/15 07:36:07;;;;;;;6.50;2.00;;;15.50;99.90;;;;;;5006452;28;20959;-76
2022/12/15 07:38:34;;;;;;;7.80;2.20;;;15.50;99.90;;;;;;4983540;28;20578;-76
2022/12/15 07:41:06;;;;;;;7.37;2.30;;;15.50;99.90;;;;;;5019444;28;20223;-76
2022/12/15 07:43:33;;;;;;;7.33;1.93;;;15.60;99.90;;;;;;4985515;28;20192;-76
2022/12/15 07:45:59;;;;;;;7.60;2.20;;;15.60;99.90;;;;;;5001676;28;20565;-76
2022/12/15 07:48:26;;;;;;;5.43;1.90;;;15.70;99.90;;;;;;4986128;28;20267;-76
2022/12/15 07:50:56;;;;;;;5.10;1.73;;;15.60;99.90;;;;;;5005344;28;20195;-75
2022/12/15 07:53:26;;;;;;;4.70;1.90;;;15.60;99.90;;;;;;5001985;28;20189;-76
2022/12/15 07:55:59;;;;;;;8.27;2.27;;;15.60;99.90;;;;;;4996362;28;20204;-76
2022/12/15 07:58:27;;;;;;;8.77;1.90;;;15.70;99.90;;;;;;4998462;28;20243;-75
2022/12/15 08:01:00;;;;;;;9.47;2.17;;;15.70;99.90;;;;;;4998665;28;20211;-76
2022/12/15 08:03:27;;;;;;;5.47;1.83;;;15.70;99.90;;;;;;4998843;28;20268;-76
2022/12/15 08:05:54;;;;;;;3.63;1.53;;;15.80;99.90;;;;;;5012395;28;20189;-75
2022/12/15 08:08:21;;;;;;;4.87;1.90;;;15.80;99.90;;;;;;4996802;28;20203;-75
2022/12/15 08:10:48;;;;;;;4.13;1.63;;;15.80;99.90;;;;;;5003428;28;20255;-76
2022/12/15 08:13:15;;;;;;;7.70;2.40;;;15.80;99.90;;;;;;5005108;28;20221;-76
2022/12/15 08:15:42;;;;;;;5.23;1.93;;;15.80;99.90;;;;;;5002415;28;20659;-76
2022/12/15 08:18:08;;;;;;;3.57;1.57;;;15.90;99.90;;;;;;5004074;28;20205;-76
2022/12/15 08:20:35;;;;;;;5.37;1.97;;;15.90;99.90;;;;;;5003366;28;20193;-76
2022/12/15 08:23:01;;;;;;;8.13;2.20;;;15.90;99.90;;;;;;5000283;28;20572;-76
2022/12/15 08:25:27;;;;;;;4.93;2.10;;;15.90;99.90;;;;;;4993484;28;20726;-76
2022/12/15 08:27:55;;;;;;;7.00;2.00;;;15.90;99.90;;;;;;4997738;28;20255;-76
2022/12/15 08:30:21;;;;;;;8.80;2.10;;;16.00;99.90;;;;;;5006828;28;20189;-76
2022/12/15 08:32:48;;;;;;;7.07;2.47;;;16.00;99.90;;;;;;5002384;28;20272;-76
2022/12/15 08:35:14;;;;;;;7.53;2.17;;;16.10;99.90;;;;;;5003739;28;20635;-76
2022/12/15 08:37:41;;;;;;;5.03;1.93;;;16.10;99.90;;;;;;5000420;28;20197;-76
2022/12/15 08:40:08;;;;;;;6.13;2.10;;;16.20;99.90;;;;;;4998599;28;20193;-75
2022/12/15 08:42:36;;;;;;;10.47;2.57;;;16.20;99.90;;;;;;4999687;28;20284;-76
2022/12/15 08:45:04;;;;;;;5.20;1.77;;;16.30;99.90;;;;;;4998702;28;20189;-75
2022/12/15 08:47:31;;;;;;;4.90;2.00;;;16.30;99.90;;;;;;4995268;28;20640;-76
2022/12/15 08:49:57;;;;;;;4.50;1.70;;;16.30;99.90;;;;;;4999247;28;20199;-76
2022/12/15 08:52:23;;;;;;;5.57;1.97;;;16.30;99.90;;;;;;5001971;28;20228;-76
2022/12/15 08:54:50;;;;;;;3.97;1.70;;;16.30;99.90;;;;;;4996951;28;20736;-76
2022/12/15 08:57:16;;;;;;;5.10;1.80;;;16.30;99.90;;;;;;5001250;28;20709;-75
2022/12/15 08:59:43;;;;;;;7.37;2.00;;;16.30;99.90;;;;;;5002688;28;20353;-76
2022/12/15 09:02:11;;;;;;;5.23;1.97;;;16.30;99.90;;;;;;5001472;28;20197;-75
2022/12/15 09:04:37;;;;;;;7.87;2.00;;;16.40;99.90;;;;;;5000081;28;20270;-76
2022/12/15 09:07:04;;;;;;;7.13;1.73;;;16.50;99.90;;;;;;5006177;28;20221;-76
2022/12/15 09:09:30;;;;;;;6.00;1.70;;;16.60;99.90;;;;;;5005913;28;20196;-76
2022/12/15 09:11:56;;;;;;;6.57;1.90;;;16.70;99.90;;;;;;4998490;28;20532;-75
2022/12/15 09:14:23;;;;;;;4.63;1.90;;;16.80;99.90;;;;;;5004280;28;20450;-75
2022/12/15 09:16:49;;;;;;;8.20;2.10;;;16.90;99.90;;;;;;5002723;28;20204;-75
2022/12/15 09:19:15;;;;;;;5.43;2.30;;;17.00;99.90;;;;;;4996906;28;20621;-76
2022/12/15 09:21:43;;;;;;;7.17;2.23;;;17.00;99.90;;;;;;5002270;28;20575;-76
2022/12/15 09:24:13;;;;;;;6.53;2.30;;;17.10;99.90;;;;;;5005578;28;20545;-75
2022/12/15 09:26:41;;;;;;;8.77;2.80;;;17.20;99.90;;;;;;5005130;28;20221;-75
2022/12/15 09:29:12;;;;;;;5.93;2.70;;;17.20;99.90;;;;;;5001833;28;20186;-76
2022/12/15 09:31:42;;;;;;;4.27;2.13;;;17.20;99.90;;;;;;5002530;28;20192;-76
2022/12/15 09:34:14;;;;;;;6.47;2.60;;;17.20;99.90;;;;;;5004012;28;20189;-76
2022/12/15 09:36:41;;;;;;;7.77;2.87;;;17.10;99.90;;;;;;5002917;28;20196;-76
2022/12/15 09:39:10;;;;;;;6.43;2.17;;;17.00;99.90;;;;;;5005395;28;20197;-76
2022/12/15 09:41:39;;;;;;;8.97;3.00;;;17.00;99.90;;;;;;4997764;28;20272;-76
2022/12/15 09:44:16;;;;;;;6.80;2.40;;;17.00;99.90;;;;;;5000044;28;20220;-76
2022/12/15 09:47:16;;;;;;;4.90;2.57;;;17.00;99.90;;;;;;5002547;28;20251;-76
2022/12/15 09:49:54;;;;;;;8.10;2.67;;;17.10;99.90;;;;;;4997928;28;20489;-76
2022/12/15 09:52:59;;;;;;;5.40;1.93;;;17.10;99.90;;;;;;5009152;28;20196;-76
2022/12/15 09:55:30;;;;;;;7.07;2.53;;;17.10;99.90;;;;;;5003229;28;20197;-76
2022/12/15 09:58:24;;;;;;;6.37;2.50;;;17.20;99.90;;;;;;5003038;28;20200;-76
2022/12/15 10:01:01;;;;;;;11.53;2.90;;;17.40;99.90;;;;;;5000748;28;20200;-76
2022/12/15 10:04:01;;;;;;;7.17;2.30;;;17.40;99.90;;;;;;4994828;28;20681;-76
2022/12/15 10:06:57;;;;;;;8.40;2.63;;;17.30;99.90;;;;;;5006113;28;20753;-76
2022/12/15 10:09:27;;;;;;;8.90;2.90;;;17.30;99.90;;;;;;4991330;28;20623;-77
2022/12/15 10:12:15;;;;;;;10.63;2.80;;;17.30;99.90;;;;;;5003352;28;20662;-77
2022/12/15 10:14:56;;;;;;;11.13;2.90;;;17.20;99.90;;;;;;5007310;28;20728;-77
2022/12/15 10:18:00;;;;;;;9.37;3.03;;;17.20;99.90;;;;;;5004507;28;20193;-77
2022/12/15 10:20:30;;;;;;;5.53;2.60;;;17.20;99.90;;;;;;5016907;28;20196;-78
2022/12/15 10:23:13;;;;;;;6.63;2.67;;;17.20;99.90;;;;;;5004712;28;22472;-77
2022/12/15 10:25:49;;;;;;;10.23;2.80;;;17.10;99.90;;;;;;5004107;28;20196;-78
2022/12/15 10:28:15;;;;;;;6.33;2.77;;;17.10;99.90;;;;;;5000186;28;21799;-77
2022/12/15 10:31:18;;;;;;;5.73;2.50;;;17.00;99.90;;;;;;4997952;28;20251;-77
2022/12/15 10:33:55;;;;;;;8.53;3.00;;;17.00;99.90;;;;;;4997958;28;20185;-77
2022/12/15 10:36:21;;;;;;;7.50;2.60;;;17.00;99.90;;;;;;5002747;28;20185;-78
2022/12/15 10:38:48;;;;;;;7.17;2.53;;;17.00;99.90;;;;;;5016535;28;20275;-77
2022/12/15 10:41:24;;;;;;;4.50;2.80;;;17.00;99.90;;;;;;5008572;28;20254;-77
2022/12/15 10:43:53;;;;;;;6.27;2.73;;;17.00;99.90;;;;;;5017772;28;20239;-78
2022/12/15 10:46:26;;;;;;;14.33;3.40;;;16.90;99.90;;;;;;5005162;28;20212;-78
2022/12/15 10:48:59;;;;;;;7.80;3.53;;;16.90;99.90;;;;;;5004595;28;20192;-78
2022/12/15 10:51:31;;;;;;;9.20;3.53;;;16.90;99.90;;;;;;5005987;28;20189;-78
2022/12/15 10:54:14;;;;;;;9.30;3.27;;;16.80;99.90;;;;;;5004114;28;20181;-78
2022/12/15 10:56:56;;;;;;;6.03;3.03;;;16.80;99.90;;;;;;5010188;28;20181;-78
2022/12/15 10:59:35;;;;;;;12.13;3.30;;;16.80;99.90;;;;;;5007897;28;20208;-78
2022/12/15 11:02:19;;;;;;;10.87;3.27;;;16.80;99.90;;;;;;5006984;28;20227;-77
2022/12/15 11:05:15;;;;;;;6.50;3.33;;;16.80;99.90;;;;;;5007107;28;20662;-78
2022/12/15 11:07:50;;;;;;;6.33;3.20;;;16.80;99.90;;;;;;5004524;28;20264;-78
2022/12/15 11:10:26;;;;;;;7.97;3.67;;;16.80;99.90;;;;;;5005835;28;20199;-78
2022/12/15 11:13:20;;;;;;;9.43;3.70;;;16.80;99.90;;;;;;4989637;28;20184;-78
2022/12/15 11:15:53;;;;;;;6.87;4.03;;;16.80;99.90;;;;;;5005272;28;20201;-78
2022/12/15 11:18:34;;;;;;;7.00;3.23;;;16.80;99.90;;;;;;5002644;28;20633;-78
2022/12/15 11:21:26;;;;;;;7.03;3.40;;;16.80;99.90;;;;;;5004915;28;20188;-78
2022/12/15 11:24:10;;;;;;;7.80;3.60;;;16.80;99.90;;;;;;5018629;28;20184;-78
2022/12/15 11:26:53;;;;;;;5.27;3.23;;;16.80;99.90;;;;;;5005141;28;20228;-78
2022/12/15 11:29:37;;;;;;;8.47;3.47;;;16.80;99.90;;;;;;5002396;28;20181;-78
2022/12/15 11:32:05;;;;;;;7.23;3.00;;;16.70;99.90;;;;;;4995033;28;20192;-78
2022/12/15 11:46:20;;;;;;;8.63;3.50;;;16.70;99.90;;;;;;6028406;22;21819;-79
2022/12/15 11:49:13;;;;;;;9.30;4.00;;;16.70;99.90;;;;;;5025241;28;20212;-79
2022/12/15 11:52:04;;;;;;;7.10;3.03;;;16.70;99.90;;;;;;5021605;28;20184;-79
2022/12/15 11:55:16;;;;;;;8.53;3.50;;;16.70;99.90;;;;;;5022795;28;20557;-79
2022/12/15 11:57:53;;;;;;;6.40;2.97;;;16.70;99.90;;;;;;5029040;28;20652;-79
2022/12/15 12:00:21;;;;;;;5.77;2.83;;;16.70;99.90;;;;;;5042163;28;20537;-77
2022/12/15 12:03:34;;;;;;;8.83;3.00;;;16.70;99.90;;;;;;5005777;28;20241;-79
2022/12/15 12:06:30;;;;;;;9.43;3.30;;;16.70;99.90;;;;;;5024916;28;20192;-79
2022/12/15 12:09:23;;;;;;;7.90;3.60;;;16.80;99.90;;;;;;5039831;28;20210;-79
2022/12/15 12:12:12;;;;;;;5.67;3.20;;;16.80;99.90;;;;;;5024282;28;20192;-79
2022/12/15 12:15:12;;;;;;;10.07;3.40;;;16.70;99.90;;;;;;5025639;28;20218;-79
2022/12/15 12:18:21;;;;;;;6.23;3.00;;;16.70;99.90;;;;;;5021592;28;20195;-78
2022/12/15 12:21:15;;;;;;;8.10;3.10;;;16.70;99.90;;;;;;5016707;28;20294;-79
2022/12/15 12:24:05;;;;;;;7.93;3.90;;;16.80;99.90;;;;;;5022208;28;20321;-79
2022/12/15 12:26:42;;;;;;;9.87;4.47;;;16.70;99.90;;;;;;5021055;28;20869;-78
2022/12/15 12:29:20;;;;;;;10.37;4.90;;;16.70;99.90;;;;;;5017271;28;20183;-79
2022/12/15 12:32:04;;;;;;;12.27;5.10;;;16.80;99.90;;;;;;5026422;28;20687;-78
2022/12/15 12:35:24;;;;;;;11.77;5.17;;;16.70;99.90;;;;;;5023100;28;20203;-78
2022/12/15 12:37:59;;;;;;;10.97;5.07;;;16.70;99.90;;;;;;5013899;28;20184;-79
2022/12/15 12:40:40;;;;;;;11.13;5.87;;;16.70;99.90;;;;;;5018490;28;20188;-79
2022/12/15 12:43:09;;;;;;;12.03;5.27;;;16.70;99.90;;;;;;5023296;28;20191;-79
2022/12/15 12:46:01;;;;;;;8.77;4.77;;;16.70;99.90;;;;;;5018926;28;20203;-79
2022/12/15 12:48:38;;;;;;;10.73;5.43;;;16.60;99.90;;;;;;5017622;28;20914;-78
2022/12/15 12:51:34;;;;;;;10.63;5.50;;;16.60;99.90;;;;;;5020944;28;20191;-78
2022/12/15 12:54:02;;;;;;;12.73;5.47;;;16.60;99.90;;;;;;5023971;28;20287;-79
2022/12/15 12:56:44;;;;;;;13.20;5.57;;;16.70;99.90;;;;;;5016361;28;20295;-79
2022/12/15 12:59:38;;;;;;;12.03;6.10;;;16.60;99.90;;;;;;5022042;28;20199;-79
2022/12/15 13:02:32;;;;;;;12.27;5.47;;;16.60;99.90;;;;;;5024372;28;20619;-79
2022/12/15 13:05:22;;;;;;;12.90;5.90;;;16.70;99.90;;;;;;4991503;28;20570;-79
2022/12/15 13:08:05;;;;;;;10.40;5.80;;;16.60;99.90;;;;;;5014945;28;20212;-79
2022/12/15 13:10:44;;;;;;;11.53;6.13;;;16.60;99.90;;;;;;5018046;28;20252;-79
2022/12/15 13:13:43;;;;;;;9.50;5.70;;;16.60;99.90;;;;;;5019178;28;20582;-77
2022/12/15 13:16:24;;;;;;;11.30;6.33;;;16.60;99.90;;;;;;5013536;28;20517;-79
2022/12/15 13:19:07;;;;;;;14.00;6.30;;;16.60;99.90;;;;;;5031855;28;20223;-79
2022/12/15 13:21:42;;;;;;;9.40;5.97;;;16.50;99.90;;;;;;5021565;28;20660;-79
2022/12/15 13:24:44;;;;;;;16.83;6.50;;;16.60;99.90;;;;;;5027286;28;20179;-79
2022/12/15 13:27:14;;;;;;;11.57;5.30;;;16.50;99.90;;;;;;5033628;28;20669;-79
2022/12/15 13:30:00;;;;;;;10.13;5.90;;;16.50;99.90;;;;;;5025654;28;20220;-79
2022/12/15 13:32:32;;;;;;;11.00;5.90;;;16.50;99.90;;;;;;5025408;28;20177;-79
2022/12/15 13:35:13;;;;;;;10.97;5.13;;;16.50;99.90;;;;;;5022504;28;20545;-77
2022/12/15 13:37:52;;;;;;;10.40;5.23;;;16.50;99.90;;;;;;5022893;28;20182;-77
2022/12/15 13:40:36;;;;;;;12.53;5.37;;;16.40;99.90;;;;;;5045700;28;20246;-79
2022/12/15 13:43:28;;;;;;;7.80;5.13;;;16.40;99.90;;;;;;5020327;28;20189;-79
2022/12/15 13:46:16;;;;;;;8.53;4.97;;;16.40;99.90;;;;;;5016649;28;20188;-77
2022/12/15 13:49:09;;;;;;;10.20;5.40;;;16.40;99.90;;;;;;5018071;28;20200;-79
2022/12/15 13:51:44;;;;;;;12.00;5.33;;;16.40;99.90;;;;;;5024399;28;20553;-78
2022/12/15 13:54:25;;;;;;;11.13;4.93;;;16.40;99.90;;;;;;5025009;28;20188;-79
2022/12/15 13:57:08;;;;;;;12.33;5.23;;;16.40;99.90;;;;;;5022728;28;20184;-79
2022/12/15 13:59:45;;;;;;;10.10;5.03;;;16.40;99.90;;;;;;5037854;28;20200;-79
2022/12/15 14:02:41;;;;;;;8.67;5.00;;;16.40;99.90;;;;;;5024835;28;20275;-79
2022/12/15 14:05:21;;;;;;;13.67;5.60;;;16.40;99.90;;;;;;5024947;28;20193;-78
2022/12/15 14:07:57;;;;;;;10.70;6.37;;;16.40;99.90;;;;;;5023088;28;20207;-77
2022/12/15 14:10:46;;;;;;;14.10;9.03;;;16.40;99.90;;;;;;5021120;28;20195;-77
2022/12/15 14:13:18;;;;;;;14.77;8.53;;;16.40;99.90;;;;;;5019474;28;20255;-77
2022/12/15 14:15:58;;;;;;;15.07;9.00;;;16.40;99.90;;;;;;5025535;28;20215;-77
2022/12/15 14:18:40;;;;;;;13.37;8.77;;;16.40;99.90;;;;;;5005826;28;20188;-77
2022/12/15 14:21:22;;;;;;;18.17;9.10;;;16.40;99.90;;;;;;5024120;28;20204;-78
2022/12/15 14:23:48;;;;;;;17.73;7.93;;;16.40;99.90;;;;;;5009591;28;20540;-78
2022/12/15 14:26:16;;;;;;;14.57;7.80;;;16.50;99.90;;;;;;5008394;28;20233;-78
2022/12/15 14:28:46;;;;;;;13.63;7.63;;;16.50;99.90;;;;;;5032077;28;20608;-78
2022/12/15 14:31:24;;;;;;;12.97;7.10;;;16.40;99.90;;;;;;5005569;28;20185;-78
2022/12/15 14:34:12;;;;;;;13.10;7.63;;;16.40;99.90;;;;;;5006972;28;20262;-78
2022/12/15 14:36:42;;;;;;;13.87;7.03;;;16.40;99.90;;;;;;5026691;28;20720;-78
2022/12/15 14:39:32;;;;;;;11.73;7.53;;;16.40;99.90;;;;;;5035940;28;20715;-78
2022/12/15 14:42:00;;;;;;;12.87;7.80;;;16.30;99.90;;;;;;5007368;28;20657;-78
2022/12/15 14:44:40;;;;;;;12.27;7.30;;;16.30;99.90;;;;;;5024638;28;20376;-78
2022/12/15 14:47:21;;;;;;;14.50;6.93;;;16.30;99.90;;;;;;5006688;28;20290;-78
2022/12/15 14:49:48;;;;;;;10.23;6.70;;;16.30;99.90;;;;;;5024013;28;20195;-78
2022/12/15 14:52:41;;;;;;;12.93;6.30;;;16.30;99.90;;;;;;5027763;28;20234;-77
2022/12/15 14:55:36;;;;;;;12.10;5.40;;;16.20;99.90;;;;;;5020811;28;20184;-77
2022/12/15 14:58:33;;;;;;;8.93;5.37;;;16.20;99.90;;;;;;5018862;28;20192;-77
2022/12/15 15:01:02;;;;;;;12.17;5.43;;;16.20;99.90;;;;;;5017190;28;20298;-78
2022/12/15 15:03:38;;;;;;;14.77;5.40;;;16.20;99.90;;;;;;5019214;28;20196;-79
2022/12/15 15:06:11;;;;;;;11.77;5.33;;;16.10;99.90;;;;;;5027269;28;20644;-78
2022/12/15 15:08:52;;;;;;;10.83;5.57;;;16.10;99.90;;;;;;5006616;28;20187;-78
2022/12/15 15:11:36;;;;;;;12.40;5.57;;;16.10;99.90;;;;;;5023069;28;20188;-77
2022/12/15 15:14:51;;;;;;;9.13;5.07;;;16.00;99.90;;;;;;5021010;28;20202;-78
2022/12/15 15:17:48;;;;;;;8.93;5.47;;;16.00;99.90;;;;;;5030877;28;20281;-78
2022/12/15 15:20:30;;;;;;;12.03;5.40;;;16.00;99.90;;;;;;5030168;28;20185;-78
2022/12/15 15:23:11;;;;;;;11.57;5.20;;;16.00;99.90;;;;;;5018556;28;20621;-78
2022/12/15 15:26:07;;;;;;;10.20;4.93;;;16.00;99.90;;;;;;5020946;28;20252;-78
2022/12/15 15:28:40;;;;;;;12.33;5.33;;;16.00;99.90;;;;;;5027989;28;20196;-77
2022/12/15 15:31:26;;;;;;;11.33;5.43;;;16.00;99.90;;;;;;5022668;28;20266;-77
2022/12/15 15:33:56;;;;;;;13.83;5.47;;;16.00;99.90;;;;;;5020505;28;20270;-78
2022/12/15 15:36:33;;;;;;;10.67;5.50;;;16.00;99.90;;;;;;5028266;28;20187;-78
2022/12/15 15:39:12;;;;;;;10.17;5.80;;;16.00;99.90;;;;;;5023296;28;20196;-78
2022/12/15 15:41:39;;;;;;;9.10;5.00;;;15.90;99.90;;;;;;5020820;28;20871;-78
2022/12/15 15:44:14;;;;;;;10.73;5.10;;;16.00;99.90;;;;;;5027351;28;20548;-78
2022/12/15 15:46:50;;;;;;;10.83;5.23;;;16.00;99.90;;;;;;5035631;28;20412;-78
2022/12/15 15:49:20;;;;;;;12.03;5.43;;;16.00;99.90;;;;;;5024567;28;20195;-78
2022/12/15 15:51:47;;;;;;;12.87;5.43;;;15.90;99.90;;;;;;5006822;28;20190;-78